createdAt,value
2022-09-18T00:01:37.003Z,47.39
2022-09-18T00:04:08.453Z,47.63
2022-09-18T00:06:39.399Z,47.62
2022-09-18T00:09:09.205Z,47.32
2022-09-18T00:11:38.980Z,47.54
2022-09-18T00:14:11.114Z,47.27
2022-09-18T00:16:39.727Z,47.62
2022-09-18T00:19:08.516Z,47.52
2022-09-18T00:21:37.590Z,47.23
2022-09-18T00:24:06.884Z,47.25
2022-09-18T00:26:35.621Z,47.58
2022-09-18T00:29:03.807Z,47.40
2022-09-18T00:31:35.373Z,47.15
2022-09-18T00:34:06.208Z,47.35
2022-09-18T00:36:35.355Z,47.23
2022-09-18T00:39:03.875Z,47.32
2022-09-18T00:41:34.677Z,47.38
2022-09-18T00:44:38.173Z,47.13
2022-09-18T00:47:17.550Z,47.11
2022-09-18T00:49:49.156Z,47.50
2022-09-18T00:52:19.974Z,47.32
2022-09-18T00:54:52.172Z,47.04
2022-09-18T00:57:23.729Z,47.50
2022-09-18T00:59:54.184Z,47.45
2022-09-18T01:02:24.188Z,47.07
2022-09-18T01:04:52.841Z,47.30
2022-09-18T01:07:36.681Z,47.38
2022-09-18T01:10:19.529Z,47.40
2022-09-18T01:12:56.128Z,47.20
2022-09-18T01:15:31.934Z,47.05
2022-09-18T01:18:11.867Z,47.40
2022-09-18T01:21:08.914Z,47.09
2022-09-18T01:24:19.302Z,47.13
2022-09-18T01:27:00.327Z,46.90
2022-09-18T01:29:41.046Z,47.16
2022-09-18T01:32:16.720Z,47.26
2022-09-18T01:34:49.294Z,47.30
2022-09-18T01:37:22.356Z,47.43
2022-09-18T01:39:55.476Z,47.13
2022-09-18T01:42:28.863Z,47.51
2022-09-18T01:45:03.053Z,47.48
2022-09-18T01:47:37.718Z,47.35
2022-09-18T01:50:08.350Z,47.15
2022-09-18T01:52:39.539Z,47.12
2022-09-18T01:55:15.373Z,47.07
2022-09-18T01:57:50.280Z,47.11
2022-09-18T02:00:20.741Z,47.05
2022-09-18T02:02:53.032Z,47.04
2022-09-18T02:05:27.589Z,46.99
2022-09-18T02:08:07.554Z,47.01
2022-09-18T02:10:39.598Z,46.99
2022-09-18T02:13:09.943Z,46.94
2022-09-18T02:15:42.788Z,47.05
2022-09-18T02:18:16.627Z,47.24
2022-09-18T02:20:46.853Z,47.39
2022-09-18T02:23:15.854Z,47.07
2022-09-18T02:25:47.140Z,47.42
2022-09-18T02:28:18.494Z,47.24
2022-09-18T02:30:48.541Z,47.17
2022-09-18T02:33:28.486Z,46.82
2022-09-18T02:36:18.738Z,46.88
2022-09-18T02:38:54.676Z,47.07
2022-09-18T02:41:33.388Z,47.16
2022-09-18T02:44:10.052Z,47.25
2022-09-18T02:46:49.159Z,46.82
2022-09-18T02:49:29.339Z,47.15
2022-09-18T02:52:04.585Z,47.05
2022-09-18T02:54:40.276Z,47.02
2022-09-18T02:57:15.304Z,47.17
2022-09-18T02:59:48.024Z,47.19
2022-09-18T03:02:17.681Z,47.13
2022-09-18T03:04:45.892Z,47.24
2022-09-18T03:07:15.995Z,47.35
2022-09-18T03:09:44.553Z,46.91
2022-09-18T03:12:13.056Z,47.17
2022-09-18T03:14:41.205Z,47.27
2022-09-18T03:17:10.499Z,47.40
2022-09-18T03:19:39.985Z,47.13
2022-09-18T03:22:08.317Z,47.13
2022-09-18T03:24:36.447Z,47.22
2022-09-18T03:27:05.146Z,47.12
2022-09-18T03:29:33.236Z,47.25
2022-09-18T03:32:01.335Z,46.96
2022-09-18T03:34:29.485Z,46.86
2022-09-18T03:36:59.050Z,47.15
2022-09-18T03:39:27.181Z,46.92
2022-09-18T03:41:55.298Z,46.83
2022-09-18T03:44:23.380Z,47.31
2022-09-18T03:46:51.542Z,46.86
2022-09-18T03:49:19.683Z,46.96
2022-09-18T03:51:47.794Z,46.87
2022-09-18T03:54:17.510Z,47.29
2022-09-18T03:56:46.146Z,47.00
2022-09-18T03:59:14.257Z,46.81
2022-09-18T04:01:42.570Z,47.07
2022-09-18T04:04:10.930Z,46.92
2022-09-18T04:06:39.027Z,46.89
2022-09-18T04:09:07.193Z,46.79
2022-09-18T04:11:36.650Z,46.88
2022-09-18T04:14:04.754Z,47.11
2022-09-18T04:16:32.900Z,47.14
2022-09-18T04:19:01.012Z,47.28
2022-09-18T04:21:29.106Z,47.12
2022-09-18T04:23:59.956Z,47.23
2022-09-18T04:26:28.143Z,47.19
2022-09-18T04:28:57.598Z,47.19
2022-09-18T04:31:25.766Z,47.08
2022-09-18T04:33:53.875Z,46.94
2022-09-18T04:36:22.052Z,46.98
2022-09-18T04:38:50.181Z,46.94
2022-09-18T04:41:18.258Z,46.75
2022-09-18T04:43:46.374Z,47.10
2022-09-18T04:46:16.072Z,46.92
2022-09-18T04:48:49.363Z,47.06
2022-09-18T04:51:17.720Z,47.08
2022-09-18T04:53:45.890Z,46.89
2022-09-18T04:56:13.945Z,46.77
2022-09-18T04:58:42.053Z,46.92
2022-09-18T05:01:10.306Z,46.97
2022-09-18T05:03:39.824Z,46.92
2022-09-18T05:06:08.267Z,47.07
2022-09-18T05:08:37.324Z,46.76
2022-09-18T05:11:05.621Z,46.70
2022-09-18T05:13:33.729Z,46.80
2022-09-18T05:16:02.158Z,46.79
2022-09-18T05:18:30.316Z,47.08
2022-09-18T05:21:02.542Z,46.66
2022-09-18T05:23:31.990Z,46.89
2022-09-18T05:26:00.100Z,46.72
2022-09-18T05:28:28.190Z,47.04
2022-09-18T05:30:59.929Z,47.11
2022-09-18T05:33:28.085Z,47.11
2022-09-18T05:35:57.027Z,46.98
2022-09-18T05:38:26.920Z,46.80
2022-09-18T05:40:55.033Z,47.02
2022-09-18T05:43:23.136Z,46.92
2022-09-18T05:45:51.221Z,46.72
2022-09-18T05:48:19.327Z,46.92
2022-09-18T05:50:48.495Z,46.65
2022-09-18T05:53:17.948Z,46.98
2022-09-18T05:55:47.801Z,46.88
2022-09-18T05:58:17.309Z,46.85
2022-09-18T06:00:46.199Z,46.96
2022-09-18T06:03:16.121Z,46.77
2022-09-18T06:05:46.325Z,46.63
2022-09-18T06:08:14.437Z,46.67
2022-09-18T06:10:42.550Z,46.69
2022-09-18T06:13:15.629Z,46.81
2022-09-18T06:15:46.217Z,46.97
2022-09-18T06:18:15.187Z,46.98
2022-09-18T06:20:43.753Z,46.58
2022-09-18T06:23:12.224Z,46.97
2022-09-18T06:25:40.309Z,47.02
2022-09-18T06:28:08.400Z,46.89
2022-09-18T06:30:38.293Z,47.01
2022-09-18T06:33:08.205Z,46.65
2022-09-18T06:35:38.367Z,46.61
2022-09-18T06:38:08.109Z,46.60
2022-09-18T06:40:36.578Z,47.01
2022-09-18T06:43:05.140Z,46.81
2022-09-18T06:45:33.587Z,46.86
2022-09-18T06:48:06.540Z,46.86
2022-09-18T06:50:34.662Z,46.84
2022-09-18T06:53:07.673Z,46.77
2022-09-18T06:55:38.307Z,46.60
2022-09-18T06:58:06.397Z,47.00
2022-09-18T07:00:35.200Z,46.56
2022-09-18T07:03:05.614Z,46.60
2022-09-18T07:05:34.359Z,47.00
2022-09-18T07:08:02.828Z,46.66
2022-09-18T07:10:30.946Z,46.65
2022-09-18T07:12:59.227Z,46.94
2022-09-18T07:15:28.273Z,46.67
2022-09-18T07:17:57.729Z,46.69
2022-09-18T07:20:27.262Z,46.98
2022-09-18T07:22:56.246Z,46.70
2022-09-18T07:25:24.765Z,46.85
2022-09-18T07:27:53.018Z,46.85
2022-09-18T07:30:21.489Z,46.77
2022-09-18T07:32:50.097Z,46.69
2022-09-18T07:35:18.328Z,46.78
2022-09-18T07:37:47.846Z,47.01
2022-09-18T07:40:16.110Z,46.64
2022-09-18T07:42:44.220Z,46.81
2022-09-18T07:45:13.213Z,46.99
2022-09-18T07:47:41.333Z,46.62
2022-09-18T07:50:15.724Z,46.89
2022-09-18T07:52:52.363Z,46.94
2022-09-18T07:55:21.234Z,46.65
2022-09-18T07:57:49.612Z,46.61
2022-09-18T08:00:17.927Z,47.06
2022-09-18T08:02:46.433Z,46.82
2022-09-18T08:05:14.731Z,46.77
2022-09-18T08:07:42.961Z,46.77
2022-09-18T08:10:12.816Z,46.60
2022-09-18T08:12:40.973Z,46.69
2022-09-18T08:15:10.044Z,46.62
2022-09-18T08:17:45.490Z,46.63
2022-09-18T08:20:14.977Z,46.67
2022-09-18T08:22:43.660Z,46.75
2022-09-18T08:25:13.178Z,46.59
2022-09-18T08:27:41.988Z,46.60
2022-09-18T08:30:12.379Z,47.01
2022-09-18T08:32:40.627Z,46.97
2022-09-18T08:35:09.877Z,46.69
2022-09-18T08:37:37.982Z,46.87
2022-09-18T08:40:09.034Z,46.68
2022-09-18T08:42:48.353Z,46.79
2022-09-18T08:45:36.604Z,46.84
2022-09-18T08:48:13.003Z,46.86
2022-09-18T08:50:44.116Z,46.76
2022-09-18T08:53:17.249Z,47.07
2022-09-18T08:55:49.879Z,46.90
2022-09-18T08:58:26.205Z,47.00
2022-09-18T09:00:58.090Z,46.83
2022-09-18T09:03:35.075Z,46.65
2022-09-18T09:06:13.398Z,46.95
2022-09-18T09:09:15.860Z,46.92
2022-09-18T09:11:55.014Z,46.77
2022-09-18T09:14:56.135Z,46.63
2022-09-18T09:17:39.856Z,46.57
2022-09-18T09:20:21.441Z,46.72
2022-09-18T09:22:57.567Z,47.12
2022-09-18T09:25:31.532Z,46.77
2022-09-18T09:28:06.618Z,47.03
2022-09-18T09:30:37.717Z,46.79
2022-09-18T09:33:13.216Z,47.08
2022-09-18T09:35:46.104Z,47.13
2022-09-18T09:38:38.911Z,46.80
2022-09-18T09:41:15.370Z,46.72
2022-09-18T09:43:48.700Z,46.90
2022-09-18T09:46:29.188Z,46.80
2022-09-18T09:49:06.430Z,47.06
2022-09-18T09:51:44.486Z,47.13
2022-09-18T09:54:13.699Z,46.87
2022-09-18T09:56:49.273Z,46.67
2022-09-18T09:59:25.217Z,46.79
2022-09-18T10:02:01.003Z,46.70
2022-09-18T10:04:40.363Z,46.74
2022-09-18T10:07:18.941Z,46.80
2022-09-18T10:09:54.201Z,46.94
2022-09-18T10:12:32.013Z,46.66
2022-09-18T10:15:12.682Z,46.71
2022-09-18T10:17:43.322Z,47.02
2022-09-18T10:20:17.313Z,46.74
2022-09-18T10:22:47.600Z,46.89
2022-09-18T10:25:23.588Z,47.12
2022-09-18T10:27:51.673Z,46.88
2022-09-18T10:30:19.963Z,46.73
2022-09-18T10:32:49.462Z,46.89
2022-09-18T10:35:41.496Z,46.96
2022-09-18T10:38:33.550Z,47.07
2022-09-18T10:41:31.997Z,46.97
2022-09-18T10:44:07.185Z,47.04
2022-09-18T10:46:37.763Z,46.86
2022-09-18T10:49:19.932Z,46.74
2022-09-18T10:51:48.058Z,47.13
2022-09-18T10:54:18.663Z,46.88
2022-09-18T10:56:47.251Z,47.07
2022-09-18T10:59:35.626Z,46.77
2022-09-18T11:02:07.674Z,47.31
2022-09-18T11:04:38.482Z,46.78
2022-09-18T11:07:08.055Z,46.88
2022-09-18T11:09:39.726Z,47.16
2022-09-18T11:12:16.250Z,47.13
2022-09-18T11:14:47.649Z,47.05
2022-09-18T11:17:34.604Z,47.16
2022-09-18T11:20:06.605Z,47.04
2022-09-18T11:22:40.339Z,47.12
2022-09-18T11:25:19.365Z,47.11
2022-09-18T11:27:49.889Z,47.13
2022-09-18T11:30:22.963Z,47.08
2022-09-18T11:32:54.619Z,47.33
2022-09-18T11:35:25.763Z,46.95
2022-09-18T11:37:56.052Z,47.02
2022-09-18T11:40:27.359Z,47.28
2022-09-18T11:42:56.862Z,46.92
2022-09-18T11:45:41.138Z,47.19
2022-09-18T11:48:24.249Z,47.40
2022-09-18T11:50:58.842Z,47.24
2022-09-18T11:53:30.466Z,47.37
2022-09-18T11:56:03.809Z,47.13
2022-09-18T11:58:35.733Z,47.37
2022-09-18T12:01:14.958Z,47.00
2022-09-18T12:03:49.597Z,47.33
2022-09-18T12:06:32.815Z,47.07
2022-09-18T12:09:05.273Z,47.12
2022-09-18T12:11:37.874Z,47.23
2022-09-18T12:14:15.658Z,46.98
2022-09-18T12:16:48.189Z,47.22
2022-09-18T12:19:22.318Z,47.12
2022-09-18T12:21:58.773Z,47.28
2022-09-18T12:24:27.304Z,47.45
2022-09-18T12:27:07.510Z,47.11
2022-09-18T12:29:53.923Z,47.25
2022-09-18T12:32:35.289Z,47.24
2022-09-18T12:35:15.362Z,47.35
2022-09-18T12:37:54.869Z,47.40
2022-09-18T12:40:35.700Z,47.48
2022-09-18T12:43:25.205Z,47.50
2022-09-18T12:46:23.977Z,47.40
2022-09-18T12:49:16.022Z,47.61
2022-09-18T12:51:47.963Z,47.16
2022-09-18T12:54:51.311Z,47.55
2022-09-18T12:57:33.046Z,47.54
2022-09-18T13:00:05.291Z,47.28
2022-09-18T13:02:48.061Z,47.32
2022-09-18T13:05:22.511Z,47.37
2022-09-18T13:07:55.608Z,47.58
2022-09-18T13:10:28.693Z,47.56
2022-09-18T13:13:03.368Z,47.28
2022-09-18T13:15:35.634Z,47.75
2022-09-18T13:18:18.657Z,47.52
2022-09-18T13:20:47.419Z,47.77
2022-09-18T13:23:20.552Z,47.51
2022-09-18T13:25:51.790Z,47.67
2022-09-18T13:28:24.236Z,47.65
2022-09-18T13:31:24.760Z,47.59
2022-09-18T13:33:56.317Z,47.55
2022-09-18T13:36:26.480Z,47.85
2022-09-18T13:38:56.050Z,47.69
2022-09-18T13:41:24.835Z,47.82
2022-09-18T13:43:56.836Z,47.77
2022-09-18T13:46:36.775Z,47.56
2022-09-18T13:49:19.336Z,47.80
2022-09-18T13:51:48.101Z,47.73
2022-09-18T13:54:25.241Z,47.77
2022-09-18T13:57:22.222Z,47.77
2022-09-18T13:59:54.275Z,47.65
2022-09-18T14:02:37.675Z,47.70
2022-09-18T14:05:31.039Z,47.98
2022-09-18T14:08:11.119Z,47.71
2022-09-18T14:11:16.739Z,47.65
2022-09-18T14:13:51.918Z,47.98
2022-09-18T14:16:41.470Z,47.97
2022-09-18T14:19:33.175Z,47.79
2022-09-18T14:22:02.625Z,47.80
2022-09-18T14:24:57.012Z,47.71
2022-09-18T14:27:48.874Z,47.92
2022-09-18T14:30:23.374Z,47.78
2022-09-18T14:33:20.506Z,47.99
2022-09-18T14:35:58.475Z,47.87
2022-09-18T14:38:29.805Z,47.74
2022-09-18T14:41:06.082Z,47.67
2022-09-18T14:43:34.316Z,47.97
2022-09-18T14:46:02.550Z,48.10
2022-09-18T14:48:36.972Z,47.73
2022-09-18T14:51:07.514Z,47.71
2022-09-18T14:53:44.197Z,47.91
2022-09-18T14:56:16.218Z,47.73
2022-09-18T14:58:47.856Z,47.77
2022-09-18T15:01:20.092Z,48.09
2022-09-18T15:03:51.523Z,47.77
2022-09-18T15:06:22.517Z,47.86
2022-09-18T15:08:53.212Z,47.68
2022-09-18T15:11:24.468Z,47.87
2022-09-18T15:13:54.187Z,47.76
2022-09-18T15:16:27.229Z,47.88
2022-09-18T15:18:57.723Z,47.73
2022-09-18T15:21:32.429Z,47.99
2022-09-18T15:24:03.935Z,48.01
2022-09-18T15:26:36.715Z,48.15
2022-09-18T15:29:14.171Z,47.73
2022-09-18T15:31:42.496Z,47.81
2022-09-18T15:34:18.409Z,48.16
2022-09-18T15:36:47.693Z,47.87
2022-09-18T15:39:31.095Z,47.74
2022-09-18T15:42:15.619Z,48.08
2022-09-18T15:45:19.676Z,47.81
2022-09-18T15:47:47.947Z,47.75
2022-09-18T15:50:43.328Z,48.07
2022-09-18T15:53:27.672Z,48.15
2022-09-18T15:55:59.807Z,47.88
2022-09-18T15:58:42.504Z,47.71
2022-09-18T16:01:24.981Z,48.04
2022-09-18T16:04:09.203Z,47.90
2022-09-18T16:06:44.645Z,48.06
2022-09-18T16:09:26.267Z,48.17
2022-09-18T16:11:54.748Z,47.74
2022-09-18T16:14:50.159Z,48.26
2022-09-18T16:17:55.417Z,47.79
2022-09-18T16:20:30.278Z,47.98
2022-09-18T16:23:08.712Z,48.02
2022-09-18T16:25:41.344Z,47.84
2022-09-18T16:28:24.094Z,48.06
2022-09-18T16:30:52.941Z,48.07
2022-09-18T16:33:23.435Z,48.02
2022-09-18T16:35:57.100Z,47.94
2022-09-18T16:38:26.745Z,48.19
2022-09-18T16:40:55.148Z,47.93
2022-09-18T16:43:23.586Z,48.26
2022-09-18T16:45:51.802Z,48.24
2022-09-18T16:48:20.692Z,47.98
2022-09-18T16:50:48.894Z,47.86
2022-09-18T16:53:17.601Z,47.88
2022-09-18T16:55:50.949Z,48.33
2022-09-18T16:58:20.961Z,48.08
2022-09-18T17:00:49.339Z,47.82
2022-09-18T17:03:18.711Z,48.31
2022-09-18T17:05:46.870Z,48.28
2022-09-18T17:08:15.006Z,47.96
2022-09-18T17:10:45.129Z,48.25
2022-09-18T17:13:15.478Z,48.11
2022-09-18T17:15:43.695Z,48.17
2022-09-18T17:18:11.822Z,48.26
2022-09-18T17:20:39.903Z,48.25
2022-09-18T17:23:08.445Z,48.39
2022-09-18T17:25:36.985Z,48.13
2022-09-18T17:28:05.110Z,48.16
2022-09-18T17:30:34.640Z,48.01
2022-09-18T17:33:02.800Z,48.17
2022-09-18T17:35:30.908Z,48.30
2022-09-18T17:37:59.042Z,48.31
2022-09-18T17:40:27.174Z,48.01
2022-09-18T17:42:55.347Z,48.11
2022-09-18T17:45:23.439Z,48.23
2022-09-18T17:47:54.975Z,48.03
2022-09-18T17:50:24.866Z,48.40
2022-09-18T17:52:52.968Z,48.50
2022-09-18T17:55:21.098Z,48.40
2022-09-18T17:57:52.913Z,48.39
2022-09-18T18:00:21.893Z,48.16
2022-09-18T18:02:50.270Z,48.15
2022-09-18T18:05:19.942Z,48.36
2022-09-18T18:07:48.050Z,48.18
2022-09-18T18:10:16.155Z,48.46
2022-09-18T18:12:44.258Z,48.61
2022-09-18T18:15:12.349Z,48.20
2022-09-18T18:17:40.450Z,48.26
2022-09-18T18:20:09.853Z,48.49
2022-09-18T18:22:39.312Z,48.67
2022-09-18T18:25:08.741Z,48.29
2022-09-18T18:27:36.961Z,48.71
2022-09-18T18:30:06.896Z,48.59
2022-09-18T18:32:35.408Z,48.77
2022-09-18T18:35:03.500Z,48.77
2022-09-18T18:37:33.848Z,48.32
2022-09-18T18:40:04.040Z,48.69
2022-09-18T18:42:32.675Z,48.76
2022-09-18T18:45:01.148Z,48.40
2022-09-18T18:47:29.742Z,48.54
2022-09-18T18:49:58.173Z,48.73
2022-09-18T18:52:26.741Z,48.56
2022-09-18T18:54:54.890Z,48.45
2022-09-18T18:57:24.492Z,48.72
2022-09-18T18:59:52.547Z,48.45
2022-09-18T19:02:20.651Z,48.42
2022-09-18T19:04:48.772Z,48.76
2022-09-18T19:07:17.647Z,48.35
2022-09-18T19:09:45.742Z,48.60
2022-09-18T19:12:14.207Z,48.31
2022-09-18T19:14:43.780Z,48.65
2022-09-18T19:17:14.021Z,48.79
2022-09-18T19:19:42.452Z,48.83
2022-09-18T19:22:13.109Z,48.63
2022-09-18T19:24:41.205Z,48.52
2022-09-18T19:27:10.362Z,48.76
2022-09-18T19:29:39.609Z,48.52
2022-09-18T19:32:09.612Z,48.46
2022-09-18T19:34:38.042Z,48.74
2022-09-18T19:37:11.340Z,48.57
2022-09-18T19:39:39.926Z,48.75
2022-09-18T19:42:14.803Z,48.80
2022-09-18T19:44:46.284Z,48.59
2022-09-18T19:47:21.317Z,48.82
2022-09-18T19:49:50.988Z,48.62
2022-09-18T19:52:21.175Z,48.69
2022-09-18T19:54:50.942Z,48.64
2022-09-18T19:57:20.024Z,48.73
2022-09-18T19:59:50.189Z,48.91
2022-09-18T20:02:20.207Z,48.59
2022-09-18T20:04:48.396Z,48.77
2022-09-18T20:07:16.730Z,48.73
2022-09-18T20:09:44.873Z,48.95
2022-09-18T20:12:13.104Z,48.91
2022-09-18T20:14:41.344Z,48.64
2022-09-18T20:17:10.016Z,48.58
2022-09-18T20:19:39.528Z,48.69
2022-09-18T20:22:07.878Z,48.65
2022-09-18T20:24:35.992Z,48.66
2022-09-18T20:27:04.156Z,48.81
2022-09-18T20:29:32.267Z,48.68
2022-09-18T20:32:00.374Z,49.02
2022-09-18T20:34:28.515Z,48.96
2022-09-18T20:36:58.041Z,48.59
2022-09-18T20:39:26.195Z,48.67
2022-09-18T20:41:55.495Z,48.86
2022-09-18T20:44:23.597Z,48.82
2022-09-18T20:46:56.658Z,48.74
2022-09-18T20:49:25.013Z,48.52
2022-09-18T20:51:53.320Z,48.90
2022-09-18T20:54:22.931Z,48.78
2022-09-18T20:56:51.014Z,48.78
2022-09-18T20:59:21.033Z,48.72
2022-09-18T21:01:49.952Z,48.86
2022-09-18T21:04:19.942Z,49.04
2022-09-18T21:06:54.521Z,48.79
2022-09-18T21:09:24.701Z,48.91
2022-09-18T21:11:52.852Z,48.59
2022-09-18T21:14:21.308Z,48.87
2022-09-18T21:16:49.998Z,48.64
2022-09-18T21:19:21.005Z,48.84
2022-09-18T21:21:49.831Z,48.64
2022-09-18T21:24:18.145Z,48.92
2022-09-18T21:26:49.158Z,48.95
2022-09-18T21:29:20.638Z,48.74
2022-09-18T21:31:50.646Z,48.66
2022-09-18T21:34:24.017Z,48.66
2022-09-18T21:36:53.036Z,49.04
2022-09-18T21:39:21.145Z,49.04
2022-09-18T21:41:53.390Z,49.08
2022-09-18T21:44:26.965Z,48.82
2022-09-18T21:46:56.131Z,48.72
2022-09-18T21:49:24.348Z,48.77
2022-09-18T21:51:56.105Z,48.63
2022-09-18T21:54:25.498Z,48.68
2022-09-18T21:56:56.678Z,48.60
2022-09-18T21:59:26.256Z,48.95
2022-09-18T22:01:55.311Z,48.64
2022-09-18T22:04:26.369Z,48.74
2022-09-18T22:06:55.893Z,48.81
2022-09-18T22:09:25.979Z,48.75
2022-09-18T22:11:56.782Z,48.59
2022-09-18T22:14:26.623Z,48.87
2022-09-18T22:16:55.614Z,48.79
2022-09-18T22:19:23.978Z,48.85
2022-09-18T22:21:54.921Z,48.59
2022-09-18T22:24:26.028Z,48.83
2022-09-18T22:26:57.804Z,48.54
2022-09-18T22:29:28.083Z,48.99
2022-09-18T22:31:56.708Z,48.53
2022-09-18T22:34:27.421Z,48.86
2022-09-18T22:36:56.125Z,48.66
2022-09-18T22:39:24.364Z,48.91
2022-09-18T22:41:53.155Z,48.64
2022-09-18T22:44:22.887Z,48.91
2022-09-18T22:46:53.216Z,48.65
2022-09-18T22:49:23.328Z,48.63
2022-09-18T22:51:52.409Z,48.81
2022-09-18T22:54:24.806Z,48.81
2022-09-18T22:56:54.132Z,48.67
2022-09-18T22:59:26.966Z,48.92
2022-09-18T23:01:57.663Z,48.64
2022-09-18T23:04:29.290Z,48.78
2022-09-18T23:06:58.392Z,48.74
2022-09-18T23:09:27.452Z,48.51
2022-09-18T23:11:55.799Z,48.66
2022-09-18T23:14:27.763Z,48.84
2022-09-18T23:16:56.865Z,48.87
2022-09-18T23:19:27.164Z,48.68
2022-09-18T23:21:56.045Z,48.83
2022-09-18T23:24:24.896Z,48.60
2022-09-18T23:26:55.067Z,48.52
2022-09-18T23:29:26.301Z,48.60
2022-09-18T23:31:57.439Z,48.51
2022-09-18T23:34:28.905Z,48.77
2022-09-18T23:37:00.830Z,48.77
2022-09-18T23:39:30.762Z,48.48
2022-09-18T23:42:01.410Z,48.83
2022-09-18T23:44:31.704Z,48.63
2022-09-18T23:47:00.948Z,48.47
2022-09-18T23:49:29.872Z,48.78
2022-09-18T23:51:59.484Z,48.51
2022-09-18T23:54:29.407Z,48.72
2022-09-18T23:56:57.734Z,48.53
2022-09-18T23:59:27.348Z,48.49
